KSIY/SIY METAR and TAF weather

Enter ICAO airport designator
Station Type Date Time Source
KSIY METAR 2019/02/22 21:53 UTC NOAA

KSIY 222153Z AUTO VRB03KT 10SM CLR 04/M08 A3009 RMK AO2 SLP218 T00391083


Station Type Date Time Source
KSIY Decoded METAR 2019/02/22 21:53 UTC NOAA

MONTAGUE SISKIYOU COUNTY, CA, United States (KSIY) 41-46N 122-28W
Feb 22, 2019 - 04:53 PM EST / 2019.02.22 2153 UTC
Wind: Variable at 3 MPH (3 KT):0
Visibility: 10 mile(s):0
Sky conditions: clear
Temperature: 39.0 F (3.9 C)
Dew Point: 17.1 F (-8.3 C)
Relative Humidity: 40%
Pressure (altimeter): 30.09 in. Hg (1018 hPa)
ob: KSIY 222153Z AUTO VRB03KT 10SM CLR 04/M08 A3009 RMK AO2 SLP218 T00391083
cycle: 22

Station Type Date Time Source
KSIY TAF UTC NOAA

Error!


Example: see airport list